createdAt,value
2023-05-23T00:00:33.572Z,10.60
2023-05-23T00:03:23.008Z,9.60
2023-05-23T00:06:11.825Z,8.65
2023-05-23T00:09:01.916Z,9.25
2023-05-23T00:11:50.645Z,8.68
2023-05-23T00:14:40.277Z,9.25
2023-05-23T00:17:29.207Z,9.60
2023-05-23T00:20:18.172Z,9.57
2023-05-23T00:23:08.015Z,9.43
2023-05-23T00:25:58.491Z,10.18
2023-05-23T00:28:47.349Z,9.07
2023-05-23T00:31:36.192Z,8.95
2023-05-23T00:34:25.008Z,8.00
2023-05-23T00:37:13.828Z,8.75
2023-05-23T00:40:02.604Z,8.82
2023-05-23T00:42:52.707Z,8.23
2023-05-23T00:45:41.927Z,7.88
2023-05-23T00:48:31.344Z,8.18
2023-05-23T00:51:20.407Z,8.13
2023-05-23T00:54:09.339Z,9.05
2023-05-23T00:56:58.134Z,8.55
2023-05-23T00:59:48.878Z,8.45
2023-05-23T01:02:39.225Z,8.10
2023-05-23T01:05:28.096Z,8.13
2023-05-23T01:08:16.849Z,8.00
2023-05-23T01:11:08.039Z,8.40
2023-05-23T01:14:00.289Z,8.05
2023-05-23T01:16:54.710Z,9.05
2023-05-23T01:19:51.301Z,10.05
2023-05-23T01:22:55.391Z,9.18
2023-05-23T01:25:53.864Z,8.63
2023-05-23T01:28:47.715Z,8.73
2023-05-23T01:31:37.228Z,8.52
2023-05-23T01:34:26.122Z,9.23
2023-05-23T01:37:18.712Z,8.82
2023-05-23T01:40:08.111Z,9.35
2023-05-23T01:42:58.269Z,9.82
2023-05-23T01:45:48.709Z,10.45
2023-05-23T01:48:38.485Z,11.68
2023-05-23T01:51:28.715Z,10.85
2023-05-23T01:54:19.796Z,10.48
2023-05-23T01:57:08.709Z,11.85
2023-05-23T01:59:57.486Z,9.70
2023-05-23T02:02:47.802Z,10.40
2023-05-23T02:05:36.669Z,11.07
2023-05-23T02:08:25.378Z,10.38
2023-05-23T02:11:14.710Z,10.38
2023-05-23T02:14:03.630Z,11.05
2023-05-23T02:16:53.871Z,11.55
2023-05-23T02:19:44.127Z,10.52
2023-05-23T02:22:32.865Z,10.98
2023-05-23T02:25:21.626Z,10.35
2023-05-23T02:28:11.865Z,9.90
2023-05-23T02:31:00.966Z,11.05
2023-05-23T02:33:49.824Z,9.85
2023-05-23T02:36:40.456Z,9.68
2023-05-23T02:39:29.235Z,9.43
2023-05-23T02:42:18.107Z,10.50
2023-05-23T02:45:07.308Z,9.73
2023-05-23T02:47:56.114Z,12.02
2023-05-23T02:50:45.175Z,9.82
2023-05-23T02:53:35.321Z,10.48
2023-05-23T02:56:24.145Z,11.13
2023-05-23T02:59:13.763Z,11.13
2023-05-23T03:02:02.682Z,9.02
2023-05-23T03:04:51.505Z,10.43
2023-05-23T03:07:40.277Z,11.27
2023-05-23T03:10:30.598Z,11.00
2023-05-23T03:13:19.472Z,10.00
2023-05-23T03:16:08.436Z,10.82
2023-05-23T03:18:57.332Z,10.15
2023-05-23T03:21:46.082Z,10.13
2023-05-23T03:24:34.813Z,11.25
2023-05-23T03:27:24.892Z,11.13
2023-05-23T03:30:14.012Z,10.63
2023-05-23T03:33:03.122Z,10.52
2023-05-23T03:35:52.930Z,10.93
2023-05-23T03:38:41.676Z,11.07
2023-05-23T03:41:30.366Z,10.93
2023-05-23T03:44:20.740Z,10.27
2023-05-23T03:47:09.493Z,9.63
2023-05-23T03:49:58.210Z,10.05
2023-05-23T03:52:47.108Z,11.35
2023-05-23T03:55:35.899Z,9.60
2023-05-23T03:58:24.673Z,10.93
2023-05-23T04:01:14.794Z,9.13
2023-05-23T04:04:04.949Z,10.05
2023-05-23T04:06:53.800Z,9.20
2023-05-23T04:09:42.535Z,9.88
2023-05-23T04:12:31.556Z,9.02
2023-05-23T04:15:22.309Z,9.40
2023-05-23T04:18:12.469Z,10.52
2023-05-23T04:21:01.271Z,10.45
2023-05-23T04:23:49.984Z,9.75
2023-05-23T04:26:39.551Z,9.82
2023-05-23T04:29:31.597Z,12.02
2023-05-23T04:32:22.957Z,10.50
2023-05-23T04:35:14.549Z,9.82
2023-05-23T04:38:04.047Z,9.38
2023-05-23T04:40:54.101Z,11.02
2023-05-23T04:43:42.908Z,10.05
2023-05-23T04:46:32.194Z,9.77
2023-05-23T04:49:22.925Z,9.88
2023-05-23T04:52:13.451Z,10.32
2023-05-23T04:55:02.401Z,10.68
2023-05-23T04:57:51.547Z,9.85
2023-05-23T05:00:40.470Z,10.40
2023-05-23T05:03:29.392Z,10.32
2023-05-23T05:06:18.653Z,9.98
2023-05-23T05:09:08.914Z,10.07
2023-05-23T05:11:57.944Z,10.10
2023-05-23T05:14:46.667Z,10.77
2023-05-23T05:17:37.222Z,10.10
2023-05-23T05:20:26.079Z,9.95
2023-05-23T05:23:14.796Z,10.45
2023-05-23T05:26:05.266Z,10.13
2023-05-23T05:28:54.110Z,9.70
2023-05-23T05:31:43.658Z,9.20
2023-05-23T05:34:33.521Z,11.23
2023-05-23T05:37:22.467Z,10.00
2023-05-23T05:40:11.966Z,10.68
2023-05-23T05:43:02.435Z,9.75
2023-05-23T05:45:51.447Z,9.85
2023-05-23T05:48:40.325Z,9.98
2023-05-23T05:51:29.479Z,9.65
2023-05-23T05:54:19.221Z,9.63
2023-05-23T05:57:08.160Z,10.10
2023-05-23T05:59:58.401Z,9.40
2023-05-23T06:02:48.428Z,9.02
2023-05-23T06:05:39.449Z,10.20
2023-05-23T06:08:28.249Z,8.57
2023-05-23T06:11:17.133Z,9.80
2023-05-23T06:14:05.897Z,8.13
2023-05-23T06:16:56.781Z,8.13
2023-05-23T06:19:45.679Z,7.75
2023-05-23T06:22:34.655Z,8.60
2023-05-23T06:25:23.470Z,8.50
2023-05-23T06:28:12.173Z,8.23
2023-05-23T06:31:00.954Z,7.57
2023-05-23T06:33:51.129Z,7.85
2023-05-23T06:36:39.946Z,6.80
2023-05-23T06:39:28.746Z,7.03
2023-05-23T06:42:17.499Z,6.95
2023-05-23T06:45:06.610Z,8.13
2023-05-23T06:47:55.412Z,7.00
2023-05-23T06:50:45.602Z,7.00
2023-05-23T06:53:34.330Z,7.90
2023-05-23T06:56:23.574Z,7.32
2023-05-23T06:59:12.425Z,7.88
2023-05-23T07:02:01.194Z,7.38
2023-05-23T07:04:50.001Z,6.97
2023-05-23T07:07:40.176Z,6.82
2023-05-23T07:10:28.985Z,7.47
2023-05-23T07:13:17.723Z,7.20
2023-05-23T07:16:06.663Z,6.78
2023-05-23T07:18:55.488Z,6.13
2023-05-23T07:21:44.320Z,6.78
2023-05-23T07:24:34.499Z,6.72
2023-05-23T07:27:23.256Z,7.20
2023-05-23T07:30:12.089Z,6.82
2023-05-23T07:33:00.912Z,6.03
2023-05-23T07:35:49.740Z,5.95
2023-05-23T07:38:38.535Z,7.25
2023-05-23T07:41:28.655Z,5.82
2023-05-23T07:44:18.213Z,7.15
2023-05-23T07:47:06.992Z,6.07
2023-05-23T07:49:55.732Z,6.70
2023-05-23T07:52:44.532Z,7.05
2023-05-23T07:55:33.338Z,6.63
2023-05-23T07:58:24.148Z,6.20
2023-05-23T08:01:12.884Z,6.95
2023-05-23T08:04:01.774Z,5.80
2023-05-23T08:07:04.353Z,7.32
2023-05-23T08:09:54.094Z,7.10
2023-05-23T08:12:42.864Z,9.02
2023-05-23T08:15:33.012Z,8.63
2023-05-23T08:18:21.926Z,7.45
2023-05-23T08:21:10.789Z,8.05
2023-05-23T08:23:59.602Z,8.43
2023-05-23T08:26:48.462Z,9.00
2023-05-23T08:29:37.420Z,9.70
2023-05-23T08:32:27.612Z,9.65
2023-05-23T08:35:16.480Z,9.18
2023-05-23T08:38:08.994Z,8.75
2023-05-23T08:40:58.326Z,8.38
2023-05-23T08:43:47.422Z,8.20
2023-05-23T08:46:38.297Z,8.45
2023-05-23T08:49:28.426Z,10.40
2023-05-23T08:52:19.548Z,8.38
2023-05-23T08:55:08.907Z,8.35
2023-05-23T08:57:59.321Z,9.32
2023-05-23T09:00:48.873Z,6.75
2023-05-23T09:03:38.549Z,7.93
2023-05-23T09:06:28.782Z,9.65
2023-05-23T09:09:17.568Z,9.15
2023-05-23T09:12:06.619Z,8.85
2023-05-23T09:14:55.469Z,8.20
2023-05-23T09:17:44.362Z,8.15
2023-05-23T09:20:33.366Z,6.72
2023-05-23T09:23:23.471Z,8.30
2023-05-23T09:26:13.356Z,10.05
2023-05-23T09:29:01.943Z,10.60
2023-05-23T09:31:50.508Z,9.05
2023-05-23T09:34:42.411Z,7.57
2023-05-23T09:37:32.725Z,10.30
2023-05-23T09:40:22.799Z,9.90
2023-05-23T09:43:11.338Z,7.70
2023-05-23T09:46:02.528Z,8.70
2023-05-23T09:48:53.076Z,8.10
2023-05-23T09:51:41.554Z,9.93
2023-05-23T09:54:30.096Z,6.72
2023-05-23T09:57:23.215Z,7.25
2023-05-23T10:00:13.869Z,11.15
2023-05-23T10:03:12.493Z,8.23
2023-05-23T10:06:05.763Z,8.10
2023-05-23T10:08:57.346Z,9.20
2023-05-23T10:12:07.039Z,10.05
2023-05-23T10:14:59.687Z,7.72
2023-05-23T10:18:10.922Z,9.85
2023-05-23T10:21:08.683Z,9.38
2023-05-23T10:23:59.180Z,7.18
2023-05-23T10:26:47.950Z,9.50
2023-05-23T10:29:37.002Z,8.35
2023-05-23T10:32:27.852Z,7.53
2023-05-23T10:35:22.643Z,7.47
2023-05-23T10:38:22.663Z,10.32
2023-05-23T10:41:14.856Z,6.65
2023-05-23T10:44:11.141Z,8.20
2023-05-23T10:47:02.214Z,8.00
2023-05-23T10:49:54.838Z,8.90
2023-05-23T10:52:44.113Z,7.95
2023-05-23T10:55:36.655Z,6.13
2023-05-23T10:58:25.341Z,8.40
2023-05-23T11:01:18.019Z,8.93
2023-05-23T11:04:07.531Z,7.43
2023-05-23T11:06:58.036Z,6.03
2023-05-23T11:10:04.730Z,5.93
2023-05-23T11:13:07.569Z,7.57
2023-05-23T11:15:56.398Z,6.57
2023-05-23T11:18:45.425Z,7.13
2023-05-23T11:21:34.201Z,6.78
2023-05-23T11:24:24.701Z,6.13
2023-05-23T11:27:13.829Z,5.70
2023-05-23T11:30:05.159Z,6.68
2023-05-23T11:32:55.832Z,6.85
2023-05-23T11:35:46.132Z,6.60
2023-05-23T11:38:35.425Z,6.00
2023-05-23T11:41:26.355Z,6.00
2023-05-23T11:44:15.421Z,5.30
2023-05-23T11:47:04.952Z,4.88
2023-05-23T11:49:53.683Z,5.60
2023-05-23T11:52:42.325Z,5.50
2023-05-23T11:55:31.128Z,5.40
2023-05-23T11:58:21.748Z,5.68
2023-05-23T12:01:11.451Z,5.47
2023-05-23T12:04:00.115Z,4.60
2023-05-23T12:06:49.661Z,6.25
2023-05-23T12:09:44.866Z,5.72
2023-05-23T12:12:33.875Z,4.97
2023-05-23T12:15:28.524Z,4.60
2023-05-23T12:18:17.702Z,5.15
2023-05-23T12:21:08.509Z,4.13
2023-05-23T12:23:58.756Z,4.93
2023-05-23T12:26:51.270Z,5.60
2023-05-23T12:29:39.833Z,5.00
2023-05-23T12:32:29.783Z,4.20
2023-05-23T12:35:18.400Z,4.18
2023-05-23T12:38:08.718Z,4.60
2023-05-23T12:41:09.870Z,4.28
2023-05-23T12:43:58.493Z,4.07
2023-05-23T12:46:48.270Z,4.45
2023-05-23T12:49:39.520Z,4.20
2023-05-23T12:52:28.041Z,3.53
2023-05-23T12:55:16.656Z,3.75
2023-05-23T12:58:05.172Z,3.40
2023-05-23T13:00:53.741Z,4.00
2023-05-23T13:03:42.362Z,4.15
2023-05-23T13:06:33.447Z,4.40
2023-05-23T13:09:22.286Z,3.53
2023-05-23T13:12:11.020Z,4.22
2023-05-23T13:14:59.576Z,3.80
2023-05-23T13:17:50.172Z,4.72
2023-05-23T13:20:39.125Z,4.80
2023-05-23T13:23:29.585Z,4.05
2023-05-23T13:26:18.079Z,3.58
2023-05-23T13:29:06.752Z,4.82
2023-05-23T13:31:55.233Z,4.05
2023-05-23T13:34:43.755Z,3.13
2023-05-23T13:37:32.224Z,3.80
2023-05-23T13:40:23.225Z,4.30
2023-05-23T13:43:11.895Z,4.47
2023-05-23T13:46:02.016Z,4.65
2023-05-23T13:48:50.628Z,3.83
2023-05-23T13:51:39.266Z,3.70
2023-05-23T13:54:27.698Z,4.55
2023-05-23T13:57:17.583Z,4.60
2023-05-23T14:00:08.846Z,4.28
2023-05-23T14:02:57.538Z,4.00
2023-05-23T14:05:46.356Z,3.95
2023-05-23T14:08:35.173Z,4.28
2023-05-23T14:11:23.717Z,3.95
2023-05-23T14:14:13.556Z,4.00
2023-05-23T14:17:02.103Z,3.72
2023-05-23T14:19:50.649Z,4.18
2023-05-23T14:22:39.244Z,4.10
2023-05-23T14:25:27.751Z,4.43
2023-05-23T14:28:16.202Z,4.68
2023-05-23T14:31:06.705Z,4.90
2023-05-23T14:33:55.200Z,4.22
2023-05-23T14:36:43.689Z,4.05
2023-05-23T14:39:32.143Z,3.72
2023-05-23T14:42:20.608Z,3.60
2023-05-23T14:45:09.727Z,3.90
2023-05-23T14:47:59.625Z,4.13
2023-05-23T14:50:48.135Z,4.72
2023-05-23T14:53:36.651Z,3.75
2023-05-23T14:56:26.751Z,3.58
2023-05-23T14:59:15.542Z,4.30
2023-05-23T15:02:04.540Z,4.25
2023-05-23T15:04:54.431Z,3.55
2023-05-23T15:07:42.917Z,4.55
2023-05-23T15:10:31.762Z,4.35
2023-05-23T15:13:20.239Z,4.20
2023-05-23T15:16:08.930Z,3.70
2023-05-23T15:18:57.585Z,3.70
2023-05-23T15:21:51.035Z,3.33
2023-05-23T15:24:40.957Z,3.30
2023-05-23T15:27:29.653Z,3.95
2023-05-23T15:30:18.128Z,3.80
2023-05-23T15:33:07.453Z,4.07
2023-05-23T15:35:57.826Z,3.75
2023-05-23T15:38:47.625Z,3.33
2023-05-23T15:41:36.070Z,3.45
2023-05-23T15:44:24.558Z,3.28
2023-05-23T15:47:13.016Z,3.58
2023-05-23T15:50:01.569Z,4.10
2023-05-23T15:52:50.113Z,3.17
2023-05-23T15:55:42.123Z,3.22
2023-05-23T15:58:31.601Z,3.10
2023-05-23T16:01:20.555Z,2.70
2023-05-23T16:04:09.090Z,3.55
2023-05-23T16:06:57.593Z,3.83
2023-05-23T16:09:46.072Z,4.40
2023-05-23T16:12:36.039Z,3.95
2023-05-23T16:15:24.572Z,3.90
2023-05-23T16:18:13.112Z,3.70
2023-05-23T16:21:01.848Z,3.50
2023-05-23T16:23:50.758Z,3.50
2023-05-23T16:26:39.638Z,3.30
2023-05-23T16:29:29.452Z,3.22
2023-05-23T16:32:17.937Z,3.30
2023-05-23T16:35:07.014Z,3.17
2023-05-23T16:37:55.487Z,3.45
2023-05-23T16:40:45.826Z,2.95
2023-05-23T16:43:35.014Z,2.90
2023-05-23T16:46:25.032Z,3.40
2023-05-23T16:49:13.552Z,2.90
2023-05-23T16:52:02.044Z,3.28
2023-05-23T16:54:50.578Z,3.13
2023-05-23T16:57:39.105Z,3.22
2023-05-23T17:00:28.115Z,3.03
2023-05-23T17:03:18.256Z,2.60
2023-05-23T17:06:06.977Z,2.85
2023-05-23T17:08:55.737Z,2.95
2023-05-23T17:11:44.256Z,2.90
2023-05-23T17:14:32.824Z,2.70
2023-05-23T17:17:21.481Z,3.30
2023-05-23T17:20:12.158Z,2.67
2023-05-23T17:23:01.078Z,3.80
2023-05-23T17:25:49.613Z,3.90
2023-05-23T17:28:38.173Z,3.55
2023-05-23T17:31:29.675Z,3.70
2023-05-23T17:34:19.204Z,4.00
2023-05-23T17:37:09.300Z,4.20
2023-05-23T17:39:58.017Z,4.60
2023-05-23T17:42:46.802Z,3.88
2023-05-23T17:45:36.184Z,4.40
2023-05-23T17:48:38.269Z,4.18
2023-05-23T17:51:33.450Z,4.43
2023-05-23T17:54:23.300Z,4.03
2023-05-23T17:57:11.982Z,4.35
2023-05-23T18:00:00.550Z,4.20
2023-05-23T18:02:49.133Z,4.20
2023-05-23T18:05:37.578Z,4.30
2023-05-23T18:08:26.153Z,3.80
2023-05-23T18:11:15.986Z,4.28
2023-05-23T18:14:04.550Z,4.13
2023-05-23T18:16:53.296Z,4.55
2023-05-23T18:19:42.289Z,4.47
2023-05-23T18:22:33.437Z,4.53
2023-05-23T18:25:27.286Z,4.53
2023-05-23T18:28:17.139Z,4.55
2023-05-23T18:31:05.907Z,4.82
2023-05-23T18:33:54.607Z,4.72
2023-05-23T18:36:43.194Z,4.07
2023-05-23T18:39:31.618Z,4.43
2023-05-23T18:42:20.208Z,4.30
2023-05-23T18:45:11.601Z,5.45
2023-05-23T18:48:00.136Z,4.13
2023-05-23T18:50:48.697Z,4.50
2023-05-23T18:53:37.112Z,4.72
2023-05-23T18:56:25.625Z,4.50
2023-05-23T18:59:15.849Z,4.72
2023-05-23T19:02:06.166Z,5.45
2023-05-23T19:04:54.732Z,5.25
2023-05-23T19:07:43.211Z,4.22
2023-05-23T19:10:31.713Z,4.35
2023-05-23T19:13:20.785Z,4.40
2023-05-23T19:16:10.612Z,4.03
2023-05-23T19:19:01.452Z,5.55
2023-05-23T19:21:52.663Z,4.28
2023-05-23T19:24:44.088Z,4.53
2023-05-23T19:27:33.357Z,4.80
2023-05-23T19:30:22.008Z,4.75
2023-05-23T19:33:11.220Z,4.50
2023-05-23T19:36:01.385Z,5.00
2023-05-23T19:38:49.882Z,5.07
2023-05-23T19:41:38.350Z,5.03
2023-05-23T19:44:27.115Z,5.05
2023-05-23T19:47:16.001Z,5.15
2023-05-23T19:50:05.922Z,4.90
2023-05-23T19:52:55.856Z,6.03
2023-05-23T19:55:45.842Z,5.47
2023-05-23T19:58:36.106Z,5.18
2023-05-23T20:01:25.870Z,5.40
2023-05-23T20:04:15.879Z,5.07
2023-05-23T20:07:04.589Z,5.57
2023-05-23T20:09:55.220Z,5.28
2023-05-23T20:12:44.554Z,4.88
2023-05-23T20:15:39.978Z,5.07
2023-05-23T20:18:30.169Z,5.55
2023-05-23T20:21:22.501Z,5.15
2023-05-23T20:24:11.803Z,6.05
2023-05-23T20:27:03.121Z,4.93
2023-05-23T20:29:53.011Z,5.07
2023-05-23T20:32:45.274Z,4.88
2023-05-23T20:35:36.628Z,4.85
2023-05-23T20:38:27.172Z,5.38
2023-05-23T20:41:15.711Z,5.22
2023-05-23T20:44:05.602Z,5.28
2023-05-23T20:46:57.022Z,6.03
2023-05-23T20:49:47.623Z,5.30
2023-05-23T20:52:36.933Z,5.47
2023-05-23T20:55:27.104Z,5.18
2023-05-23T20:58:17.621Z,5.22
2023-05-23T21:01:08.083Z,4.80
2023-05-23T21:03:57.225Z,5.82
2023-05-23T21:06:45.728Z,5.28
2023-05-23T21:09:34.209Z,5.40
2023-05-23T21:12:22.705Z,5.30
2023-05-23T21:15:11.598Z,4.40
2023-05-23T21:18:01.442Z,4.88
2023-05-23T21:20:50.578Z,5.38
2023-05-23T21:23:39.082Z,5.63
2023-05-23T21:26:27.537Z,5.97
2023-05-23T21:29:16.069Z,5.13
2023-05-23T21:32:04.717Z,5.28
2023-05-23T21:34:54.564Z,4.93
2023-05-23T21:37:42.984Z,4.97
2023-05-23T21:40:31.414Z,4.97
2023-05-23T21:43:19.873Z,4.72
2023-05-23T21:46:08.354Z,4.72
2023-05-23T21:48:56.872Z,4.80
2023-05-23T21:51:46.770Z,5.53
2023-05-23T21:54:35.263Z,5.32
2023-05-23T21:57:23.769Z,5.40
2023-05-23T22:00:13.265Z,5.75
2023-05-23T22:03:02.182Z,5.70
2023-05-23T22:05:50.718Z,5.50
2023-05-23T22:08:42.084Z,6.40
2023-05-23T22:11:33.954Z,5.20
2023-05-23T22:14:23.034Z,5.65
2023-05-23T22:17:14.258Z,5.70
2023-05-23T22:20:05.239Z,4.82
2023-05-23T22:22:55.130Z,5.43
2023-05-23T22:25:44.957Z,5.60
2023-05-23T22:28:35.400Z,5.20
2023-05-23T22:31:24.393Z,6.22
2023-05-23T22:34:13.125Z,5.35
2023-05-23T22:37:02.396Z,5.28
2023-05-23T22:39:51.309Z,5.90
2023-05-23T22:42:41.421Z,5.82
2023-05-23T22:45:30.204Z,5.18
2023-05-23T22:48:19.349Z,4.97
2023-05-23T22:51:09.716Z,5.40
2023-05-23T22:53:58.631Z,5.10
2023-05-23T22:56:47.412Z,5.43
2023-05-23T22:59:37.322Z,4.32
2023-05-23T23:02:25.829Z,5.43
2023-05-23T23:05:14.849Z,5.00
2023-05-23T23:08:03.407Z,4.70
2023-05-23T23:11:11.297Z,4.65
2023-05-23T23:14:00.000Z,4.97
2023-05-23T23:16:50.523Z,5.28
2023-05-23T23:19:38.988Z,5.32
2023-05-23T23:22:27.592Z,5.32
2023-05-23T23:25:18.795Z,4.97
2023-05-23T23:28:07.587Z,5.18
2023-05-23T23:30:56.065Z,4.50
2023-05-23T23:33:46.036Z,4.90
2023-05-23T23:36:34.470Z,5.13
2023-05-23T23:39:22.970Z,5.28
2023-05-23T23:42:11.482Z,5.00
2023-05-23T23:44:59.948Z,5.30
2023-05-23T23:47:48.412Z,5.00
2023-05-23T23:50:38.335Z,5.30
2023-05-23T23:53:27.555Z,4.68
2023-05-23T23:56:16.012Z,5.85
2023-05-23T23:59:04.497Z,5.65
